sensor_id;sensor_type;location;lat;lon;timestamp;temperature;humidity
9949;DHT22;5013;51.840;8.276;2022-12-07T00:00:06;4.80;99.90
9949;DHT22;5013;51.840;8.276;2022-12-07T00:02:32;4.80;99.90
9949;DHT22;5013;51.840;8.276;2022-12-07T00:04:57;4.80;99.90
9949;DHT22;5013;51.840;8.276;2022-12-07T00:07:23;4.80;99.90
9949;DHT22;5013;51.840;8.276;2022-12-07T00:09:49;4.80;99.90
9949;DHT22;5013;51.840;8.276;2022-12-07T00:12:14;4.80;99.90
9949;DHT22;5013;51.840;8.276;2022-12-07T00:14:40;4.80;99.90
9949;DHT22;5013;51.840;8.276;2022-12-07T00:17:05;4.80;99.90
9949;DHT22;5013;51.840;8.276;2022-12-07T00:19:31;4.80;99.90
9949;DHT22;5013;51.840;8.276;2022-12-07T00:21:56;4.80;99.90
9949;DHT22;5013;51.840;8.276;2022-12-07T00:24:22;5.00;99.90
9949;DHT22;5013;51.840;8.276;2022-12-07T00:26:47;4.90;99.90
9949;DHT22;5013;51.840;8.276;2022-12-07T00:29:18;4.90;99.90
9949;DHT22;5013;51.840;8.276;2022-12-07T00:31:44;4.90;99.90
9949;DHT22;5013;51.840;8.276;2022-12-07T00:34:15;4.80;99.90
9949;DHT22;5013;51.840;8.276;2022-12-07T00:36:41;4.90;99.90
9949;DHT22;5013;51.840;8.276;2022-12-07T00:39:13;4.90;99.90
9949;DHT22;5013;51.840;8.276;2022-12-07T00:41:39;4.90;99.90
9949;DHT22;5013;51.840;8.276;2022-12-07T00:44:05;4.90;99.90
9949;DHT22;5013;51.840;8.276;2022-12-07T00:46:30;5.00;99.90
9949;DHT22;5013;51.840;8.276;2022-12-07T00:48:56;4.90;99.90
9949;DHT22;5013;51.840;8.276;2022-12-07T00:51:23;4.90;99.90
9949;DHT22;5013;51.840;8.276;2022-12-07T00:53:49;4.90;99.90
9949;DHT22;5013;51.840;8.276;2022-12-07T00:56:22;4.90;99.90
9949;DHT22;5013;51.840;8.276;2022-12-07T00:58:56;4.90;99.90
9949;DHT22;5013;51.840;8.276;2022-12-07T01:01:23;4.90;99.90
9949;DHT22;5013;51.840;8.276;2022-12-07T01:03:49;5.00;99.90
9949;DHT22;5013;51.840;8.276;2022-12-07T01:06:17;5.00;99.90
9949;DHT22;5013;51.840;8.276;2022-12-07T01:08:43;4.90;99.90
9949;DHT22;5013;51.840;8.276;2022-12-07T01:11:11;5.00;99.90
9949;DHT22;5013;51.840;8.276;2022-12-07T01:13:37;5.00;99.90
9949;DHT22;5013;51.840;8.276;2022-12-07T01:16:05;5.00;99.90
9949;DHT22;5013;51.840;8.276;2022-12-07T01:18:33;5.00;99.90
9949;DHT22;5013;51.840;8.276;2022-12-07T01:21:05;4.90;99.90
9949;DHT22;5013;51.840;8.276;2022-12-07T01:23:32;5.00;99.90
9949;DHT22;5013;51.840;8.276;2022-12-07T01:25:59;4.90;99.90
9949;DHT22;5013;51.840;8.276;2022-12-07T01:28:25;5.00;99.90
9949;DHT22;5013;51.840;8.276;2022-12-07T01:30:59;5.00;99.90
9949;DHT22;5013;51.840;8.276;2022-12-07T01:33:31;5.00;99.90
9949;DHT22;5013;51.840;8.276;2022-12-07T01:38:50;5.00;99.90
9949;DHT22;5013;51.840;8.276;2022-12-07T01:41:18;5.00;99.90
9949;DHT22;5013;51.840;8.276;2022-12-07T01:46:38;5.00;99.90
9949;DHT22;5013;51.840;8.276;2022-12-07T01:49:07;4.90;99.90
9949;DHT22;5013;51.840;8.276;2022-12-07T01:51:34;4.90;99.90
9949;DHT22;5013;51.840;8.276;2022-12-07T01:54:02;5.00;99.90
9949;DHT22;5013;51.840;8.276;2022-12-07T01:56:28;5.00;99.90
9949;DHT22;5013;51.840;8.276;2022-12-07T01:58:55;5.00;99.90
9949;DHT22;5013;51.840;8.276;2022-12-07T02:01:22;5.00;99.90
9949;DHT22;5013;51.840;8.276;2022-12-07T02:03:48;5.00;99.90
9949;DHT22;5013;51.840;8.276;2022-12-07T02:06:17;5.00;99.90
9949;DHT22;5013;51.840;8.276;2022-12-07T02:08:44;4.90;99.90
9949;DHT22;5013;51.840;8.276;2022-12-07T02:11:10;4.90;99.90
9949;DHT22;5013;51.840;8.276;2022-12-07T02:13:38;4.90;99.90
9949;DHT22;5013;51.840;8.276;2022-12-07T02:34:51;4.90;99.90
9949;DHT22;5013;51.840;8.276;2022-12-07T02:37:57;4.90;99.90
9949;DHT22;5013;51.840;8.276;2022-12-07T02:44:00;4.90;99.90
9949;DHT22;5013;51.840;8.276;2022-12-07T02:46:31;4.80;99.90
9949;DHT22;5013;51.840;8.276;2022-12-07T02:48:58;4.80;99.90
9949;DHT22;5013;51.840;8.276;2022-12-07T02:51:25;4.80;99.90
9949;DHT22;5013;51.840;8.276;2022-12-07T02:53:51;4.80;99.90
9949;DHT22;5013;51.840;8.276;2022-12-07T03:11:06;4.70;99.90
9949;DHT22;5013;51.840;8.276;2022-12-07T03:16:17;4.70;99.90
9949;DHT22;5013;51.840;8.276;2022-12-07T03:18:54;4.60;99.90
9949;DHT22;5013;51.840;8.276;2022-12-07T03:21:27;4.60;99.90
9949;DHT22;5013;51.840;8.276;2022-12-07T03:23:57;4.60;99.90
9949;DHT22;5013;51.840;8.276;2022-12-07T03:26:31;4.60;99.90
9949;DHT22;5013;51.840;8.276;2022-12-07T03:29:06;4.60;99.90
9949;DHT22;5013;51.840;8.276;2022-12-07T03:31:36;4.50;99.90
9949;DHT22;5013;51.840;8.276;2022-12-07T03:34:06;4.40;99.90
9949;DHT22;5013;51.840;8.276;2022-12-07T03:36:42;4.40;99.90
9949;DHT22;5013;51.840;8.276;2022-12-07T03:41:37;4.30;99.90
9949;DHT22;5013;51.840;8.276;2022-12-07T03:44:04;4.30;99.90
9949;DHT22;5013;51.840;8.276;2022-12-07T03:47:29;4.20;99.90
9949;DHT22;5013;51.840;8.276;2022-12-07T03:49:37;4.20;99.90
9949;DHT22;5013;51.840;8.276;2022-12-07T03:52:18;4.10;99.90
9949;DHT22;5013;51.840;8.276;2022-12-07T03:54:53;4.10;99.90
9949;DHT22;5013;51.840;8.276;2022-12-07T03:57:21;4.00;99.90
9949;DHT22;5013;51.840;8.276;2022-12-07T03:59:47;3.90;99.90
9949;DHT22;5013;51.840;8.276;2022-12-07T04:02:14;3.80;99.90
9949;DHT22;5013;51.840;8.276;2022-12-07T04:04:40;3.80;99.90
9949;DHT22;5013;51.840;8.276;2022-12-07T04:07:06;3.80;99.90
9949;DHT22;5013;51.840;8.276;2022-12-07T04:09:32;3.70;99.90
9949;DHT22;5013;51.840;8.276;2022-12-07T04:11:58;3.70;99.90
9949;DHT22;5013;51.840;8.276;2022-12-07T04:14:23;3.70;99.90
9949;DHT22;5013;51.840;8.276;2022-12-07T04:16:53;3.60;99.90
9949;DHT22;5013;51.840;8.276;2022-12-07T04:19:21;3.60;99.90
9949;DHT22;5013;51.840;8.276;2022-12-07T04:21:47;3.60;99.90
9949;DHT22;5013;51.840;8.276;2022-12-07T04:24:14;3.70;99.90
9949;DHT22;5013;51.840;8.276;2022-12-07T04:26:41;3.60;99.90
9949;DHT22;5013;51.840;8.276;2022-12-07T04:29:08;3.60;99.90
9949;DHT22;5013;51.840;8.276;2022-12-07T04:31:34;3.60;99.90
9949;DHT22;5013;51.840;8.276;2022-12-07T04:33:59;3.60;99.90
9949;DHT22;5013;51.840;8.276;2022-12-07T04:36:25;3.60;99.90
9949;DHT22;5013;51.840;8.276;2022-12-07T04:38:53;3.60;99.90
9949;DHT22;5013;51.840;8.276;2022-12-07T04:41:20;3.70;99.90
9949;DHT22;5013;51.840;8.276;2022-12-07T04:43:53;3.60;99.90
9949;DHT22;5013;51.840;8.276;2022-12-07T04:46:19;3.60;99.90
9949;DHT22;5013;51.840;8.276;2022-12-07T04:48:44;3.60;99.90
9949;DHT22;5013;51.840;8.276;2022-12-07T04:51:10;3.60;99.90
9949;DHT22;5013;51.840;8.276;2022-12-07T04:53:35;3.60;99.90
9949;DHT22;5013;51.840;8.276;2022-12-07T04:56:01;3.60;99.90
9949;DHT22;5013;51.840;8.276;2022-12-07T04:58:27;3.60;99.90
9949;DHT22;5013;51.840;8.276;2022-12-07T05:00:55;3.60;99.90
9949;DHT22;5013;51.840;8.276;2022-12-07T05:03:21;3.60;99.90
9949;DHT22;5013;51.840;8.276;2022-12-07T05:05:46;3.60;99.90
9949;DHT22;5013;51.840;8.276;2022-12-07T05:08:12;3.60;99.90
9949;DHT22;5013;51.840;8.276;2022-12-07T05:10:37;3.50;99.90
9949;DHT22;5013;51.840;8.276;2022-12-07T05:13:03;3.50;99.90
9949;DHT22;5013;51.840;8.276;2022-12-07T05:15:29;3.50;99.90
9949;DHT22;5013;51.840;8.276;2022-12-07T05:17:54;3.50;99.90
9949;DHT22;5013;51.840;8.276;2022-12-07T05:20:20;3.50;99.90
9949;DHT22;5013;51.840;8.276;2022-12-07T05:22:45;3.60;99.90
9949;DHT22;5013;51.840;8.276;2022-12-07T05:25:11;3.60;99.90
9949;DHT22;5013;51.840;8.276;2022-12-07T05:27:36;3.60;99.90
9949;DHT22;5013;51.840;8.276;2022-12-07T05:30:03;3.60;99.90
9949;DHT22;5013;51.840;8.276;2022-12-07T05:32:29;3.60;99.90
9949;DHT22;5013;51.840;8.276;2022-12-07T05:34:55;3.60;99.90
9949;DHT22;5013;51.840;8.276;2022-12-07T05:37:20;3.60;99.90
9949;DHT22;5013;51.840;8.276;2022-12-07T05:39:46;3.60;99.90
9949;DHT22;5013;51.840;8.276;2022-12-07T05:42:11;3.60;99.90
9949;DHT22;5013;51.840;8.276;2022-12-07T05:44:38;3.50;99.90
9949;DHT22;5013;51.840;8.276;2022-12-07T05:47:03;3.60;99.90
9949;DHT22;5013;51.840;8.276;2022-12-07T05:49:29;3.60;99.90
9949;DHT22;5013;51.840;8.276;2022-12-07T05:51:55;3.50;99.90
9949;DHT22;5013;51.840;8.276;2022-12-07T05:54:21;3.50;99.90
9949;DHT22;5013;51.840;8.276;2022-12-07T05:56:46;3.50;99.90
9949;DHT22;5013;51.840;8.276;2022-12-07T05:59:12;3.50;99.90
9949;DHT22;5013;51.840;8.276;2022-12-07T06:02:01;3.50;99.90
9949;DHT22;5013;51.840;8.276;2022-12-07T06:04:30;3.50;99.90
9949;DHT22;5013;51.840;8.276;2022-12-07T06:06:56;3.50;99.90
9949;DHT22;5013;51.840;8.276;2022-12-07T06:09:25;3.50;99.90
9949;DHT22;5013;51.840;8.276;2022-12-07T06:11:52;3.50;99.90
9949;DHT22;5013;51.840;8.276;2022-12-07T06:14:36;3.50;99.90
9949;DHT22;5013;51.840;8.276;2022-12-07T06:17:02;3.40;99.90
9949;DHT22;5013;51.840;8.276;2022-12-07T06:19:27;3.50;99.90
9949;DHT22;5013;51.840;8.276;2022-12-07T06:21:53;3.60;99.90
9949;DHT22;5013;51.840;8.276;2022-12-07T06:24:19;3.50;99.90
9949;DHT22;5013;51.840;8.276;2022-12-07T06:26:45;3.50;99.90
9949;DHT22;5013;51.840;8.276;2022-12-07T06:29:12;3.50;99.90
9949;DHT22;5013;51.840;8.276;2022-12-07T06:31:38;3.40;99.90
9949;DHT22;5013;51.840;8.276;2022-12-07T06:34:05;3.40;99.90
9949;DHT22;5013;51.840;8.276;2022-12-07T06:36:32;3.50;99.90
9949;DHT22;5013;51.840;8.276;2022-12-07T06:38:57;3.40;99.90
9949;DHT22;5013;51.840;8.276;2022-12-07T06:41:23;3.30;99.90
9949;DHT22;5013;51.840;8.276;2022-12-07T06:43:49;3.30;99.90
9949;DHT22;5013;51.840;8.276;2022-12-07T06:46:15;3.30;99.90
9949;DHT22;5013;51.840;8.276;2022-12-07T06:52:03;3.30;99.90
9949;DHT22;5013;51.840;8.276;2022-12-07T06:54:30;3.20;99.90
9949;DHT22;5013;51.840;8.276;2022-12-07T06:56:55;3.20;99.90
9949;DHT22;5013;51.840;8.276;2022-12-07T06:59:21;3.20;99.90
9949;DHT22;5013;51.840;8.276;2022-12-07T07:01:47;3.20;99.90
9949;DHT22;5013;51.840;8.276;2022-12-07T07:04:12;3.20;99.90
9949;DHT22;5013;51.840;8.276;2022-12-07T07:06:38;3.10;99.90
9949;DHT22;5013;51.840;8.276;2022-12-07T07:09:04;3.10;99.90
9949;DHT22;5013;51.840;8.276;2022-12-07T07:11:29;3.10;99.90
9949;DHT22;5013;51.840;8.276;2022-12-07T07:13:55;3.00;99.90
9949;DHT22;5013;51.840;8.276;2022-12-07T07:16:23;3.00;99.90
9949;DHT22;5013;51.840;8.276;2022-12-07T07:18:49;3.00;99.90
9949;DHT22;5013;51.840;8.276;2022-12-07T07:21:14;3.10;99.90
9949;DHT22;5013;51.840;8.276;2022-12-07T07:23:40;2.80;99.90
9949;DHT22;5013;51.840;8.276;2022-12-07T07:26:05;2.90;99.90
9949;DHT22;5013;51.840;8.276;2022-12-07T07:28:31;2.90;99.90
9949;DHT22;5013;51.840;8.276;2022-12-07T07:30:57;2.90;99.90
9949;DHT22;5013;51.840;8.276;2022-12-07T07:33:22;2.80;99.90
9949;DHT22;5013;51.840;8.276;2022-12-07T07:35:48;2.80;99.90
9949;DHT22;5013;51.840;8.276;2022-12-07T07:38:14;2.70;99.90
9949;DHT22;5013;51.840;8.276;2022-12-07T07:40:39;2.80;99.90
9949;DHT22;5013;51.840;8.276;2022-12-07T07:43:05;2.70;99.90
9949;DHT22;5013;51.840;8.276;2022-12-07T07:48:53;2.70;99.90
9949;DHT22;5013;51.840;8.276;2022-12-07T07:51:18;2.70;99.90
9949;DHT22;5013;51.840;8.276;2022-12-07T07:53:44;2.70;99.90
9949;DHT22;5013;51.840;8.276;2022-12-07T07:56:09;2.70;99.90
9949;DHT22;5013;51.840;8.276;2022-12-07T07:58:35;2.70;99.90
9949;DHT22;5013;51.840;8.276;2022-12-07T08:01:07;2.70;99.90
9949;DHT22;5013;51.840;8.276;2022-12-07T08:03:33;2.80;99.90
9949;DHT22;5013;51.840;8.276;2022-12-07T08:05:59;2.80;99.90
9949;DHT22;5013;51.840;8.276;2022-12-07T08:08:25;2.80;99.90
9949;DHT22;5013;51.840;8.276;2022-12-07T08:10:50;2.80;99.90
9949;DHT22;5013;51.840;8.276;2022-12-07T08:13:16;2.80;99.90
9949;DHT22;5013;51.840;8.276;2022-12-07T08:15:45;2.80;99.90
9949;DHT22;5013;51.840;8.276;2022-12-07T08:18:12;2.80;99.90
9949;DHT22;5013;51.840;8.276;2022-12-07T08:20:38;2.80;99.90
9949;DHT22;5013;51.840;8.276;2022-12-07T08:23:05;2.90;99.90
9949;DHT22;5013;51.840;8.276;2022-12-07T08:25:32;3.00;99.90
9949;DHT22;5013;51.840;8.276;2022-12-07T08:27:58;3.10;99.90
9949;DHT22;5013;51.840;8.276;2022-12-07T08:30:26;3.10;99.90
9949;DHT22;5013;51.840;8.276;2022-12-07T08:32:51;3.10;99.90
9949;DHT22;5013;51.840;8.276;2022-12-07T08:35:17;3.20;99.90
9949;DHT22;5013;51.840;8.276;2022-12-07T08:37:43;3.20;99.90
9949;DHT22;5013;51.840;8.276;2022-12-07T08:40:10;3.20;99.90
9949;DHT22;5013;51.840;8.276;2022-12-07T08:42:41;3.30;99.90
9949;DHT22;5013;51.840;8.276;2022-12-07T08:45:08;3.30;99.90
9949;DHT22;5013;51.840;8.276;2022-12-07T08:47:36;3.30;99.90
9949;DHT22;5013;51.840;8.276;2022-12-07T08:50:03;3.40;99.90
9949;DHT22;5013;51.840;8.276;2022-12-07T08:52:31;3.50;99.90
9949;DHT22;5013;51.840;8.276;2022-12-07T08:54:58;3.70;99.90
9949;DHT22;5013;51.840;8.276;2022-12-07T08:57:26;3.60;99.90
9949;DHT22;5013;51.840;8.276;2022-12-07T08:59:53;3.70;99.90
9949;DHT22;5013;51.840;8.276;2022-12-07T09:02:18;3.70;99.90
9949;DHT22;5013;51.840;8.276;2022-12-07T09:08:06;3.70;99.90
9949;DHT22;5013;51.840;8.276;2022-12-07T09:10:32;3.60;99.90
9949;DHT22;5013;51.840;8.276;2022-12-07T09:12:58;3.70;99.90
9949;DHT22;5013;51.840;8.276;2022-12-07T09:15:28;3.60;99.90
9949;DHT22;5013;51.840;8.276;2022-12-07T09:17:53;3.60;99.90
9949;DHT22;5013;51.840;8.276;2022-12-07T09:20:19;3.70;99.90
9949;DHT22;5013;51.840;8.276;2022-12-07T09:22:45;3.70;99.90
9949;DHT22;5013;51.840;8.276;2022-12-07T09:25:10;3.80;99.90
9949;DHT22;5013;51.840;8.276;2022-12-07T09:27:36;3.90;99.90
9949;DHT22;5013;51.840;8.276;2022-12-07T09:30:03;4.00;99.90
9949;DHT22;5013;51.840;8.276;2022-12-07T09:32:29;4.00;99.90
9949;DHT22;5013;51.840;8.276;2022-12-07T09:34:55;4.10;99.90
9949;DHT22;5013;51.840;8.276;2022-12-07T09:37:20;4.20;99.90
9949;DHT22;5013;51.840;8.276;2022-12-07T09:39:46;4.30;99.90
9949;DHT22;5013;51.840;8.276;2022-12-07T09:42:28;4.50;99.90
9949;DHT22;5013;51.840;8.276;2022-12-07T09:44:55;4.50;99.90
9949;DHT22;5013;51.840;8.276;2022-12-07T09:47:21;4.60;99.90
9949;DHT22;5013;51.840;8.276;2022-12-07T09:49:47;4.60;99.90
9949;DHT22;5013;51.840;8.276;2022-12-07T09:54:41;4.60;99.90
9949;DHT22;5013;51.840;8.276;2022-12-07T09:57:11;4.70;99.90
9949;DHT22;5013;51.840;8.276;2022-12-07T09:59:38;4.70;99.90
9949;DHT22;5013;51.840;8.276;2022-12-07T10:05:04;4.90;99.90
9949;DHT22;5013;51.840;8.276;2022-12-07T10:07:30;4.90;99.90
9949;DHT22;5013;51.840;8.276;2022-12-07T10:09:56;4.90;99.90
9949;DHT22;5013;51.840;8.276;2022-12-07T10:12:21;4.90;99.90
9949;DHT22;5013;51.840;8.276;2022-12-07T10:15:01;4.90;99.90
9949;DHT22;5013;51.840;8.276;2022-12-07T10:17:39;4.90;99.90
9949;DHT22;5013;51.840;8.276;2022-12-07T10:20:20;5.00;99.90
9949;DHT22;5013;51.840;8.276;2022-12-07T10:23:16;4.90;99.90
9949;DHT22;5013;51.840;8.276;2022-12-07T10:25:42;5.10;99.90
9949;DHT22;5013;51.840;8.276;2022-12-07T10:33:36;5.10;99.90
9949;DHT22;5013;51.840;8.276;2022-12-07T10:36:22;5.00;99.90
9949;DHT22;5013;51.840;8.276;2022-12-07T10:39:16;4.80;99.90
9949;DHT22;5013;51.840;8.276;2022-12-07T10:42:00;4.90;99.90
9949;DHT22;5013;51.840;8.276;2022-12-07T10:44:29;4.80;99.90
9949;DHT22;5013;51.840;8.276;2022-12-07T10:53:01;4.80;99.90
9949;DHT22;5013;51.840;8.276;2022-12-07T11:01:31;5.00;99.90
9949;DHT22;5013;51.840;8.276;2022-12-07T11:10:34;5.50;99.90
9949;DHT22;5013;51.840;8.276;2022-12-07T11:16:08;5.40;99.90
9949;DHT22;5013;51.840;8.276;2022-12-07T11:19:03;5.30;99.90
9949;DHT22;5013;51.840;8.276;2022-12-07T11:24:10;5.40;99.90
9949;DHT22;5013;51.840;8.276;2022-12-07T11:26:55;5.40;99.90
9949;DHT22;5013;51.840;8.276;2022-12-07T11:35:15;5.40;99.90
9949;DHT22;5013;51.840;8.276;2022-12-07T11:37:46;5.40;99.90
9949;DHT22;5013;51.840;8.276;2022-12-07T11:40:24;5.20;99.90
9949;DHT22;5013;51.840;8.276;2022-12-07T11:43:30;5.20;99.90
9949;DHT22;5013;51.840;8.276;2022-12-07T11:46:04;5.30;99.90
9949;DHT22;5013;51.840;8.276;2022-12-07T11:48:41;5.40;99.90
9949;DHT22;5013;51.840;8.276;2022-12-07T11:51:11;5.50;99.90
9949;DHT22;5013;51.840;8.276;2022-12-07T11:53:56;5.40;99.90
9949;DHT22;5013;51.840;8.276;2022-12-07T11:56:26;5.50;99.90
9949;DHT22;5013;51.840;8.276;2022-12-07T11:59:09;5.60;1.00
9949;DHT22;5013;51.840;8.276;2022-12-07T12:04:25;5.60;30.10
9949;DHT22;5013;51.840;8.276;2022-12-07T12:06:52;5.60;99.90
9949;DHT22;5013;51.840;8.276;2022-12-07T12:09:33;5.60;8.80
9949;DHT22;5013;51.840;8.276;2022-12-07T12:14:46;5.40;25.10
9949;DHT22;5013;51.840;8.276;2022-12-07T12:22:44;5.30;99.90
9949;DHT22;5013;51.840;8.276;2022-12-07T12:27:49;5.60;99.90
9949;DHT22;5013;51.840;8.276;2022-12-07T12:30:37;5.60;49.20
9949;DHT22;5013;51.840;8.276;2022-12-07T12:33:27;5.70;1.00
9949;DHT22;5013;51.840;8.276;2022-12-07T12:46:58;5.90;1.00
9949;DHT22;5013;51.840;8.276;2022-12-07T12:51:59;5.90;1.00
9949;DHT22;5013;51.840;8.276;2022-12-07T12:54:33;5.90;1.00
9949;DHT22;5013;51.840;8.276;2022-12-07T12:59:57;6.00;1.00
9949;DHT22;5013;51.840;8.276;2022-12-07T13:02:27;6.00;1.00
9949;DHT22;5013;51.840;8.276;2022-12-07T13:10:39;6.10;1.00
9949;DHT22;5013;51.840;8.276;2022-12-07T13:16:37;6.00;1.00
9949;DHT22;5013;51.840;8.276;2022-12-07T13:25:58;6.00;1.00
9949;DHT22;5013;51.840;8.276;2022-12-07T13:28:31;5.90;1.00
9949;DHT22;5013;51.840;8.276;2022-12-07T13:33:39;5.90;1.00
9949;DHT22;5013;51.840;8.276;2022-12-07T13:36:16;5.80;1.00
9949;DHT22;5013;51.840;8.276;2022-12-07T13:38:50;5.80;1.00
9949;DHT22;5013;51.840;8.276;2022-12-07T13:41:18;5.90;1.00
9949;DHT22;5013;51.840;8.276;2022-12-07T13:44:14;5.90;1.00
9949;DHT22;5013;51.840;8.276;2022-12-07T13:46:53;5.90;1.00
9949;DHT22;5013;51.840;8.276;2022-12-07T13:52:44;5.90;1.00
9949;DHT22;5013;51.840;8.276;2022-12-07T13:55:15;5.90;1.00
9949;DHT22;5013;51.840;8.276;2022-12-07T13:57:44;5.90;1.00
9949;DHT22;5013;51.840;8.276;2022-12-07T14:00:19;5.90;1.00
9949;DHT22;5013;51.840;8.276;2022-12-07T14:05:37;5.80;1.00
9949;DHT22;5013;51.840;8.276;2022-12-07T14:13:17;5.80;1.00
9949;DHT22;5013;51.840;8.276;2022-12-07T14:15:50;5.70;1.00
9949;DHT22;5013;51.840;8.276;2022-12-07T14:18:37;5.60;1.00
9949;DHT22;5013;51.840;8.276;2022-12-07T14:23:34;5.40;1.00
9949;DHT22;5013;51.840;8.276;2022-12-07T14:29:32;5.20;16.10
9949;DHT22;5013;51.840;8.276;2022-12-07T14:32:19;5.10;99.90
9949;DHT22;5013;51.840;8.276;2022-12-07T14:35:12;5.00;99.90
9949;DHT22;5013;51.840;8.276;2022-12-07T14:37:39;5.00;99.90
9949;DHT22;5013;51.840;8.276;2022-12-07T14:40:06;4.90;99.90
9949;DHT22;5013;51.840;8.276;2022-12-07T14:42:33;4.90;99.90
9949;DHT22;5013;51.840;8.276;2022-12-07T14:44:59;4.90;99.90
9949;DHT22;5013;51.840;8.276;2022-12-07T14:47:25;4.90;99.90
9949;DHT22;5013;51.840;8.276;2022-12-07T14:49:52;4.90;99.90
9949;DHT22;5013;51.840;8.276;2022-12-07T14:52:25;4.90;99.90
9949;DHT22;5013;51.840;8.276;2022-12-07T14:54:52;4.80;99.90
9949;DHT22;5013;51.840;8.276;2022-12-07T14:57:18;4.80;99.90
9949;DHT22;5013;51.840;8.276;2022-12-07T14:59:44;4.70;99.90
9949;DHT22;5013;51.840;8.276;2022-12-07T15:02:12;4.70;99.90
9949;DHT22;5013;51.840;8.276;2022-12-07T15:04:38;4.60;99.90
9949;DHT22;5013;51.840;8.276;2022-12-07T15:10:29;4.60;99.90
9949;DHT22;5013;51.840;8.276;2022-12-07T15:13:01;4.50;99.90
9949;DHT22;5013;51.840;8.276;2022-12-07T15:15:47;4.50;99.90
9949;DHT22;5013;51.840;8.276;2022-12-07T15:18:13;4.50;99.90
9949;DHT22;5013;51.840;8.276;2022-12-07T15:20:39;4.50;99.90
9949;DHT22;5013;51.840;8.276;2022-12-07T15:23:05;4.40;99.90
9949;DHT22;5013;51.840;8.276;2022-12-07T15:25:30;4.40;99.90
9949;DHT22;5013;51.840;8.276;2022-12-07T15:27:56;4.50;99.90
9949;DHT22;5013;51.840;8.276;2022-12-07T15:30:21;4.50;99.90
9949;DHT22;5013;51.840;8.276;2022-12-07T15:32:51;4.40;99.90
9949;DHT22;5013;51.840;8.276;2022-12-07T15:35:17;4.40;99.90
9949;DHT22;5013;51.840;8.276;2022-12-07T15:37:43;4.40;99.90
9949;DHT22;5013;51.840;8.276;2022-12-07T15:40:09;4.40;99.90
9949;DHT22;5013;51.840;8.276;2022-12-07T15:42:38;4.40;99.90
9949;DHT22;5013;51.840;8.276;2022-12-07T15:45:05;4.40;99.90
9949;DHT22;5013;51.840;8.276;2022-12-07T15:47:33;4.30;99.90
9949;DHT22;5013;51.840;8.276;2022-12-07T15:50:00;4.30;99.90
9949;DHT22;5013;51.840;8.276;2022-12-07T15:52:26;4.40;99.90
9949;DHT22;5013;51.840;8.276;2022-12-07T15:54:51;4.40;99.90
9949;DHT22;5013;51.840;8.276;2022-12-07T15:57:17;4.40;99.90
9949;DHT22;5013;51.840;8.276;2022-12-07T15:59:43;4.30;99.90
9949;DHT22;5013;51.840;8.276;2022-12-07T16:02:10;4.40;99.90
9949;DHT22;5013;51.840;8.276;2022-12-07T16:04:36;4.30;99.90
9949;DHT22;5013;51.840;8.276;2022-12-07T16:07:02;4.30;99.90
9949;DHT22;5013;51.840;8.276;2022-12-07T16:09:28;4.40;99.90
9949;DHT22;5013;51.840;8.276;2022-12-07T16:11:54;4.30;99.90
9949;DHT22;5013;51.840;8.276;2022-12-07T16:14:20;4.30;99.90
9949;DHT22;5013;51.840;8.276;2022-12-07T16:16:46;4.40;99.90
9949;DHT22;5013;51.840;8.276;2022-12-07T16:19:12;4.30;99.90
9949;DHT22;5013;51.840;8.276;2022-12-07T16:21:38;4.40;99.90
9949;DHT22;5013;51.840;8.276;2022-12-07T16:27:25;4.30;99.90
9949;DHT22;5013;51.840;8.276;2022-12-07T16:29:51;4.30;99.90
9949;DHT22;5013;51.840;8.276;2022-12-07T16:32:17;4.30;99.90
9949;DHT22;5013;51.840;8.276;2022-12-07T16:34:42;4.20;99.90
9949;DHT22;5013;51.840;8.276;2022-12-07T16:37:08;4.20;99.90
9949;DHT22;5013;51.840;8.276;2022-12-07T16:39:33;4.20;99.90
9949;DHT22;5013;51.840;8.276;2022-12-07T16:42:00;4.10;99.90
9949;DHT22;5013;51.840;8.276;2022-12-07T16:44:25;4.20;99.90
9949;DHT22;5013;51.840;8.276;2022-12-07T16:46:51;4.20;99.90
9949;DHT22;5013;51.840;8.276;2022-12-07T16:49:17;4.20;99.90
9949;DHT22;5013;51.840;8.276;2022-12-07T16:51:43;4.10;99.90
9949;DHT22;5013;51.840;8.276;2022-12-07T16:54:10;4.10;99.90
9949;DHT22;5013;51.840;8.276;2022-12-07T16:56:37;4.20;99.90
9949;DHT22;5013;51.840;8.276;2022-12-07T16:59:02;4.20;99.90
9949;DHT22;5013;51.840;8.276;2022-12-07T17:01:28;4.10;99.90
9949;DHT22;5013;51.840;8.276;2022-12-07T17:03:56;4.20;99.90
9949;DHT22;5013;51.840;8.276;2022-12-07T17:06:23;4.10;99.90
9949;DHT22;5013;51.840;8.276;2022-12-07T17:08:50;4.10;99.90
9949;DHT22;5013;51.840;8.276;2022-12-07T17:11:18;4.20;99.90
9949;DHT22;5013;51.840;8.276;2022-12-07T17:13:44;4.20;99.90
9949;DHT22;5013;51.840;8.276;2022-12-07T17:16:29;4.40;99.90
9949;DHT22;5013;51.840;8.276;2022-12-07T17:18:55;4.30;99.90
9949;DHT22;5013;51.840;8.276;2022-12-07T17:21:21;4.30;99.90
9949;DHT22;5013;51.840;8.276;2022-12-07T17:23:47;4.30;99.90
9949;DHT22;5013;51.840;8.276;2022-12-07T17:26:21;4.20;99.90
9949;DHT22;5013;51.840;8.276;2022-12-07T17:28:47;4.20;99.90
9949;DHT22;5013;51.840;8.276;2022-12-07T17:31:15;4.30;99.90
9949;DHT22;5013;51.840;8.276;2022-12-07T17:33:41;4.30;99.90
9949;DHT22;5013;51.840;8.276;2022-12-07T17:38:36;4.30;99.90
9949;DHT22;5013;51.840;8.276;2022-12-07T17:41:12;4.30;99.90
9949;DHT22;5013;51.840;8.276;2022-12-07T17:43:38;4.30;99.90
9949;DHT22;5013;51.840;8.276;2022-12-07T17:46:10;4.20;99.90
9949;DHT22;5013;51.840;8.276;2022-12-07T17:48:36;4.30;99.90
9949;DHT22;5013;51.840;8.276;2022-12-07T17:51:04;4.30;99.90
9949;DHT22;5013;51.840;8.276;2022-12-07T17:53:50;4.30;99.90
9949;DHT22;5013;51.840;8.276;2022-12-07T17:56:16;4.20;99.90
9949;DHT22;5013;51.840;8.276;2022-12-07T17:58:42;4.30;99.90
9949;DHT22;5013;51.840;8.276;2022-12-07T18:01:08;4.10;99.90
9949;DHT22;5013;51.840;8.276;2022-12-07T18:03:34;4.20;99.90
9949;DHT22;5013;51.840;8.276;2022-12-07T18:06:00;4.20;99.90
9949;DHT22;5013;51.840;8.276;2022-12-07T18:08:26;4.20;99.90
9949;DHT22;5013;51.840;8.276;2022-12-07T18:11:00;4.30;99.90
9949;DHT22;5013;51.840;8.276;2022-12-07T18:13:26;4.20;99.90
9949;DHT22;5013;51.840;8.276;2022-12-07T18:16:08;4.20;99.90
9949;DHT22;5013;51.840;8.276;2022-12-07T18:18:34;4.20;99.90
9949;DHT22;5013;51.840;8.276;2022-12-07T18:21:15;4.20;99.90
9949;DHT22;5013;51.840;8.276;2022-12-07T18:23:47;4.30;99.90
9949;DHT22;5013;51.840;8.276;2022-12-07T18:26:14;4.30;99.90
9949;DHT22;5013;51.840;8.276;2022-12-07T18:28:41;4.30;99.90
9949;DHT22;5013;51.840;8.276;2022-12-07T18:31:07;4.30;99.90
9949;DHT22;5013;51.840;8.276;2022-12-07T18:33:33;4.20;99.90
9949;DHT22;5013;51.840;8.276;2022-12-07T18:35:59;4.20;99.90
9949;DHT22;5013;51.840;8.276;2022-12-07T18:38:27;4.20;99.90
9949;DHT22;5013;51.840;8.276;2022-12-07T18:40:53;4.20;99.90
9949;DHT22;5013;51.840;8.276;2022-12-07T18:43:19;4.20;99.90
9949;DHT22;5013;51.840;8.276;2022-12-07T18:46:10;4.20;99.90
9949;DHT22;5013;51.840;8.276;2022-12-07T18:48:36;4.20;99.90
9949;DHT22;5013;51.840;8.276;2022-12-07T18:51:04;4.20;99.90
9949;DHT22;5013;51.840;8.276;2022-12-07T18:53:30;4.20;99.90
9949;DHT22;5013;51.840;8.276;2022-12-07T18:56:15;4.20;99.90
9949;DHT22;5013;51.840;8.276;2022-12-07T18:58:41;4.10;99.90
9949;DHT22;5013;51.840;8.276;2022-12-07T19:01:28;4.10;99.90
9949;DHT22;5013;51.840;8.276;2022-12-07T19:03:55;4.10;99.90
9949;DHT22;5013;51.840;8.276;2022-12-07T19:06:20;4.10;99.90
9949;DHT22;5013;51.840;8.276;2022-12-07T19:08:46;4.10;99.90
9949;DHT22;5013;51.840;8.276;2022-12-07T19:11:19;4.10;99.90
9949;DHT22;5013;51.840;8.276;2022-12-07T19:14:03;4.10;99.90
9949;DHT22;5013;51.840;8.276;2022-12-07T19:16:29;4.10;99.90
9949;DHT22;5013;51.840;8.276;2022-12-07T19:18:54;4.10;99.90
9949;DHT22;5013;51.840;8.276;2022-12-07T19:21:20;4.10;99.90
9949;DHT22;5013;51.840;8.276;2022-12-07T19:23:45;4.10;99.90